sensor_id;sensor_type;location;lat;lon;timestamp;P1;durP1;ratioP1;P2;durP2;ratioP2
39540;SDS011;25219;52.244;21.006;2024-03-29T00:00:36;11.15;;;5.40;;
39540;SDS011;25219;52.244;21.006;2024-03-29T00:03:01;11.38;;;5.47;;
39540;SDS011;25219;52.244;21.006;2024-03-29T00:05:26;12.23;;;5.70;;
39540;SDS011;25219;52.244;21.006;2024-03-29T00:07:51;11.13;;;5.03;;
39540;SDS011;25219;52.244;21.006;2024-03-29T00:10:17;11.57;;;5.43;;
39540;SDS011;25219;52.244;21.006;2024-03-29T00:12:42;12.87;;;4.90;;
39540;SDS011;25219;52.244;21.006;2024-03-29T00:15:07;15.63;;;5.50;;
39540;SDS011;25219;52.244;21.006;2024-03-29T00:17:32;9.18;;;4.35;;
39540;SDS011;25219;52.244;21.006;2024-03-29T00:19:58;11.67;;;4.97;;
39540;SDS011;25219;52.244;21.006;2024-03-29T00:22:23;6.43;;;3.90;;
39540;SDS011;25219;52.244;21.006;2024-03-29T00:24:48;8.40;;;4.67;;
39540;SDS011;25219;52.244;21.006;2024-03-29T00:27:14;8.80;;;3.80;;
39540;SDS011;25219;52.244;21.006;2024-03-29T00:29:39;10.50;;;4.13;;
39540;SDS011;25219;52.244;21.006;2024-03-29T00:32:04;13.32;;;4.60;;
39540;SDS011;25219;52.244;21.006;2024-03-29T00:34:30;7.78;;;3.95;;
39540;SDS011;25219;52.244;21.006;2024-03-29T00:36:55;8.52;;;4.07;;
39540;SDS011;25219;52.244;21.006;2024-03-29T00:39:20;8.00;;;3.93;;
39540;SDS011;25219;52.244;21.006;2024-03-29T00:41:46;6.90;;;4.00;;
39540;SDS011;25219;52.244;21.006;2024-03-29T00:44:11;7.68;;;3.60;;
39540;SDS011;25219;52.244;21.006;2024-03-29T00:46:36;6.30;;;3.97;;
39540;SDS011;25219;52.244;21.006;2024-03-29T00:49:01;11.00;;;4.67;;
39540;SDS011;25219;52.244;21.006;2024-03-29T00:51:27;7.38;;;3.88;;
39540;SDS011;25219;52.244;21.006;2024-03-29T00:53:52;9.83;;;3.43;;
39540;SDS011;25219;52.244;21.006;2024-03-29T00:56:19;11.25;;;4.15;;
39540;SDS011;25219;52.244;21.006;2024-03-29T00:58:44;8.70;;;4.17;;
39540;SDS011;25219;52.244;21.006;2024-03-29T01:01:10;7.30;;;3.40;;
39540;SDS011;25219;52.244;21.006;2024-03-29T01:03:35;7.65;;;3.50;;
39540;SDS011;25219;52.244;21.006;2024-03-29T01:06:00;7.93;;;3.40;;
39540;SDS011;25219;52.244;21.006;2024-03-29T01:08:26;8.20;;;3.10;;
39540;SDS011;25219;52.244;21.006;2024-03-29T01:10:54;6.75;;;3.05;;
39540;SDS011;25219;52.244;21.006;2024-03-29T01:13:19;8.80;;;3.57;;
39540;SDS011;25219;52.244;21.006;2024-03-29T01:15:44;7.13;;;3.30;;
39540;SDS011;25219;52.244;21.006;2024-03-29T01:18:10;5.93;;;3.43;;
39540;SDS011;25219;52.244;21.006;2024-03-29T01:20:35;6.43;;;3.05;;
39540;SDS011;25219;52.244;21.006;2024-03-29T01:23:00;3.70;;;2.42;;
39540;SDS011;25219;52.244;21.006;2024-03-29T01:25:26;5.87;;;2.50;;
39540;SDS011;25219;52.244;21.006;2024-03-29T01:27:52;7.43;;;2.25;;
39540;SDS011;25219;52.244;21.006;2024-03-29T01:30:18;4.05;;;2.00;;
39540;SDS011;25219;52.244;21.006;2024-03-29T01:32:43;8.27;;;2.67;;
39540;SDS011;25219;52.244;21.006;2024-03-29T01:35:08;4.35;;;2.45;;
39540;SDS011;25219;52.244;21.006;2024-03-29T01:37:34;5.47;;;2.30;;
39540;SDS011;25219;52.244;21.006;2024-03-29T01:39:59;4.88;;;2.40;;
39540;SDS011;25219;52.244;21.006;2024-03-29T01:42:24;4.38;;;2.00;;
39540;SDS011;25219;52.244;21.006;2024-03-29T01:44:50;3.33;;;1.90;;
39540;SDS011;25219;52.244;21.006;2024-03-29T01:47:16;3.70;;;2.20;;
39540;SDS011;25219;52.244;21.006;2024-03-29T01:49:41;4.40;;;2.33;;
39540;SDS011;25219;52.244;21.006;2024-03-29T01:52:06;5.10;;;2.23;;
39540;SDS011;25219;52.244;21.006;2024-03-29T01:54:32;4.15;;;2.30;;
39540;SDS011;25219;52.244;21.006;2024-03-29T01:56:57;5.55;;;2.30;;
39540;SDS011;25219;52.244;21.006;2024-03-29T01:59:23;3.72;;;2.00;;
39540;SDS011;25219;52.244;21.006;2024-03-29T02:01:49;5.00;;;2.33;;
39540;SDS011;25219;52.244;21.006;2024-03-29T02:04:14;2.78;;;1.85;;
39540;SDS011;25219;52.244;21.006;2024-03-29T02:06:39;3.80;;;1.95;;
39540;SDS011;25219;52.244;21.006;2024-03-29T02:09:05;3.40;;;1.80;;
39540;SDS011;25219;52.244;21.006;2024-03-29T02:11:30;4.28;;;1.98;;
39540;SDS011;25219;52.244;21.006;2024-03-29T02:13:55;3.42;;;1.95;;
39540;SDS011;25219;52.244;21.006;2024-03-29T02:16:21;6.10;;;2.13;;
39540;SDS011;25219;52.244;21.006;2024-03-29T02:18:46;5.78;;;1.90;;
39540;SDS011;25219;52.244;21.006;2024-03-29T02:21:11;3.25;;;1.92;;
39540;SDS011;25219;52.244;21.006;2024-03-29T02:23:37;3.70;;;1.95;;
39540;SDS011;25219;52.244;21.006;2024-03-29T02:26:03;6.53;;;2.08;;
39540;SDS011;25219;52.244;21.006;2024-03-29T02:28:28;7.05;;;1.90;;
39540;SDS011;25219;52.244;21.006;2024-03-29T02:30:53;3.90;;;2.37;;
39540;SDS011;25219;52.244;21.006;2024-03-29T02:33:20;2.03;;;1.65;;
39540;SDS011;25219;52.244;21.006;2024-03-29T02:35:45;3.40;;;1.90;;
39540;SDS011;25219;52.244;21.006;2024-03-29T02:38:11;3.40;;;1.70;;
39540;SDS011;25219;52.244;21.006;2024-03-29T02:40:36;3.30;;;1.73;;
39540;SDS011;25219;52.244;21.006;2024-03-29T02:43:01;3.47;;;1.73;;
39540;SDS011;25219;52.244;21.006;2024-03-29T02:45:26;2.87;;;1.73;;
39540;SDS011;25219;52.244;21.006;2024-03-29T02:47:51;5.87;;;2.03;;
39540;SDS011;25219;52.244;21.006;2024-03-29T02:50:17;2.20;;;1.43;;
39540;SDS011;25219;52.244;21.006;2024-03-29T02:52:42;3.20;;;1.92;;
39540;SDS011;25219;52.244;21.006;2024-03-29T02:55:07;3.15;;;1.55;;
39540;SDS011;25219;52.244;21.006;2024-03-29T02:57:34;3.97;;;2.10;;
39540;SDS011;25219;52.244;21.006;2024-03-29T02:59:59;2.63;;;1.80;;
39540;SDS011;25219;52.244;21.006;2024-03-29T03:02:25;4.60;;;1.90;;
39540;SDS011;25219;52.244;21.006;2024-03-29T03:04:50;3.27;;;1.97;;
39540;SDS011;25219;52.244;21.006;2024-03-29T03:07:15;4.43;;;2.00;;
39540;SDS011;25219;52.244;21.006;2024-03-29T03:09:59;3.58;;;1.60;;
39540;SDS011;25219;52.244;21.006;2024-03-29T03:12:43;3.95;;;2.08;;
39540;SDS011;25219;52.244;21.006;2024-03-29T03:15:08;4.38;;;1.65;;
39540;SDS011;25219;52.244;21.006;2024-03-29T03:17:34;2.90;;;1.60;;
39540;SDS011;25219;52.244;21.006;2024-03-29T03:19:59;3.50;;;1.55;;
39540;SDS011;25219;52.244;21.006;2024-03-29T03:22:24;3.37;;;2.03;;
39540;SDS011;25219;52.244;21.006;2024-03-29T03:24:50;3.40;;;1.48;;
39540;SDS011;25219;52.244;21.006;2024-03-29T03:27:15;10.43;;;2.20;;
39540;SDS011;25219;52.244;21.006;2024-03-29T03:29:40;3.53;;;1.43;;
39540;SDS011;25219;52.244;21.006;2024-03-29T03:32:06;3.87;;;1.70;;
39540;SDS011;25219;52.244;21.006;2024-03-29T03:34:31;2.63;;;1.70;;
39540;SDS011;25219;52.244;21.006;2024-03-29T03:36:57;5.03;;;2.13;;
39540;SDS011;25219;52.244;21.006;2024-03-29T03:39:22;5.27;;;2.07;;
39540;SDS011;25219;52.244;21.006;2024-03-29T03:41:47;6.30;;;1.90;;
39540;SDS011;25219;52.244;21.006;2024-03-29T03:44:13;2.88;;;1.95;;
39540;SDS011;25219;52.244;21.006;2024-03-29T03:46:38;4.97;;;2.40;;
39540;SDS011;25219;52.244;21.006;2024-03-29T03:49:03;7.83;;;1.90;;
39540;SDS011;25219;52.244;21.006;2024-03-29T03:51:28;6.03;;;1.77;;
39540;SDS011;25219;52.244;21.006;2024-03-29T03:53:53;3.33;;;2.03;;
39540;SDS011;25219;52.244;21.006;2024-03-29T03:56:19;4.47;;;1.85;;
39540;SDS011;25219;52.244;21.006;2024-03-29T03:58:44;2.47;;;1.67;;
39540;SDS011;25219;52.244;21.006;2024-03-29T04:01:09;4.40;;;1.98;;
39540;SDS011;25219;52.244;21.006;2024-03-29T04:03:35;3.17;;;1.40;;
39540;SDS011;25219;52.244;21.006;2024-03-29T04:06:02;4.20;;;2.10;;
39540;SDS011;25219;52.244;21.006;2024-03-29T04:08:28;5.13;;;2.22;;
39540;SDS011;25219;52.244;21.006;2024-03-29T04:10:53;2.87;;;1.63;;
39540;SDS011;25219;52.244;21.006;2024-03-29T04:13:18;2.85;;;1.50;;
39540;SDS011;25219;52.244;21.006;2024-03-29T04:15:43;2.50;;;1.97;;
39540;SDS011;25219;52.244;21.006;2024-03-29T04:18:09;6.63;;;2.00;;
39540;SDS011;25219;52.244;21.006;2024-03-29T04:20:34;5.30;;;1.70;;
39540;SDS011;25219;52.244;21.006;2024-03-29T04:22:59;3.33;;;1.93;;
39540;SDS011;25219;52.244;21.006;2024-03-29T04:25:24;1.83;;;1.40;;
39540;SDS011;25219;52.244;21.006;2024-03-29T04:27:49;3.20;;;2.00;;
39540;SDS011;25219;52.244;21.006;2024-03-29T04:30:15;4.00;;;1.70;;
39540;SDS011;25219;52.244;21.006;2024-03-29T04:32:40;3.17;;;1.83;;
39540;SDS011;25219;52.244;21.006;2024-03-29T04:35:05;3.80;;;1.87;;
39540;SDS011;25219;52.244;21.006;2024-03-29T04:37:30;2.92;;;1.73;;
39540;SDS011;25219;52.244;21.006;2024-03-29T04:39:56;6.20;;;1.80;;
39540;SDS011;25219;52.244;21.006;2024-03-29T04:42:21;3.23;;;1.57;;
39540;SDS011;25219;52.244;21.006;2024-03-29T04:44:46;2.87;;;1.60;;
39540;SDS011;25219;52.244;21.006;2024-03-29T04:47:11;7.03;;;1.63;;
39540;SDS011;25219;52.244;21.006;2024-03-29T04:49:37;2.53;;;1.50;;
39540;SDS011;25219;52.244;21.006;2024-03-29T04:52:02;3.37;;;1.73;;
39540;SDS011;25219;52.244;21.006;2024-03-29T04:54:28;4.45;;;1.85;;
39540;SDS011;25219;52.244;21.006;2024-03-29T04:56:53;5.13;;;2.30;;
39540;SDS011;25219;52.244;21.006;2024-03-29T04:59:19;4.75;;;1.83;;
39540;SDS011;25219;52.244;21.006;2024-03-29T05:01:45;4.63;;;2.05;;
39540;SDS011;25219;52.244;21.006;2024-03-29T05:04:15;4.35;;;2.22;;
39540;SDS011;25219;52.244;21.006;2024-03-29T05:06:42;4.13;;;1.67;;
39540;SDS011;25219;52.244;21.006;2024-03-29T05:09:07;3.80;;;1.92;;
39540;SDS011;25219;52.244;21.006;2024-03-29T05:11:32;5.20;;;2.13;;
39540;SDS011;25219;52.244;21.006;2024-03-29T05:13:57;4.27;;;2.13;;
39540;SDS011;25219;52.244;21.006;2024-03-29T05:16:25;3.17;;;2.17;;
39540;SDS011;25219;52.244;21.006;2024-03-29T05:18:51;5.35;;;1.90;;
39540;SDS011;25219;52.244;21.006;2024-03-29T05:21:16;4.00;;;2.10;;
39540;SDS011;25219;52.244;21.006;2024-03-29T05:23:41;4.53;;;1.70;;
39540;SDS011;25219;52.244;21.006;2024-03-29T05:26:06;3.03;;;1.83;;
39540;SDS011;25219;52.244;21.006;2024-03-29T05:28:31;4.47;;;1.60;;
39540;SDS011;25219;52.244;21.006;2024-03-29T05:30:57;4.22;;;1.63;;
39540;SDS011;25219;52.244;21.006;2024-03-29T05:33:35;2.88;;;1.90;;
39540;SDS011;25219;52.244;21.006;2024-03-29T05:36:02;4.13;;;1.90;;
39540;SDS011;25219;52.244;21.006;2024-03-29T05:38:29;3.00;;;1.98;;
39540;SDS011;25219;52.244;21.006;2024-03-29T05:40:55;6.28;;;2.00;;
39540;SDS011;25219;52.244;21.006;2024-03-29T05:43:20;2.57;;;1.70;;
39540;SDS011;25219;52.244;21.006;2024-03-29T05:45:45;4.00;;;1.80;;
39540;SDS011;25219;52.244;21.006;2024-03-29T05:48:10;5.33;;;1.87;;
39540;SDS011;25219;52.244;21.006;2024-03-29T05:50:35;6.30;;;2.00;;
39540;SDS011;25219;52.244;21.006;2024-03-29T05:53:01;4.23;;;2.23;;
39540;SDS011;25219;52.244;21.006;2024-03-29T05:55:26;6.23;;;1.77;;
39540;SDS011;25219;52.244;21.006;2024-03-29T05:57:51;6.60;;;2.35;;
39540;SDS011;25219;52.244;21.006;2024-03-29T06:00:16;3.97;;;1.80;;
39540;SDS011;25219;52.244;21.006;2024-03-29T06:02:42;2.40;;;1.70;;
39540;SDS011;25219;52.244;21.006;2024-03-29T06:05:09;2.95;;;1.77;;
39540;SDS011;25219;52.244;21.006;2024-03-29T06:07:35;4.80;;;1.80;;
39540;SDS011;25219;52.244;21.006;2024-03-29T06:10:00;4.30;;;1.95;;
39540;SDS011;25219;52.244;21.006;2024-03-29T06:12:28;2.58;;;1.70;;
39540;SDS011;25219;52.244;21.006;2024-03-29T06:14:54;3.37;;;2.10;;
39540;SDS011;25219;52.244;21.006;2024-03-29T06:17:37;4.88;;;2.47;;
39540;SDS011;25219;52.244;21.006;2024-03-29T06:20:02;4.43;;;1.90;;
39540;SDS011;25219;52.244;21.006;2024-03-29T06:22:28;4.05;;;2.03;;
39540;SDS011;25219;52.244;21.006;2024-03-29T06:24:57;5.63;;;1.90;;
39540;SDS011;25219;52.244;21.006;2024-03-29T06:27:30;3.58;;;1.80;;
39540;SDS011;25219;52.244;21.006;2024-03-29T06:29:55;2.28;;;1.90;;
39540;SDS011;25219;52.244;21.006;2024-03-29T06:32:20;3.57;;;2.00;;
39540;SDS011;25219;52.244;21.006;2024-03-29T06:34:45;2.88;;;1.80;;
39540;SDS011;25219;52.244;21.006;2024-03-29T06:37:11;4.03;;;2.20;;
39540;SDS011;25219;52.244;21.006;2024-03-29T06:39:36;7.15;;;2.05;;
39540;SDS011;25219;52.244;21.006;2024-03-29T06:42:01;9.35;;;2.15;;
39540;SDS011;25219;52.244;21.006;2024-03-29T06:44:27;2.53;;;1.95;;
39540;SDS011;25219;52.244;21.006;2024-03-29T06:46:52;6.53;;;1.90;;
39540;SDS011;25219;52.244;21.006;2024-03-29T06:49:17;4.50;;;1.40;;
39540;SDS011;25219;52.244;21.006;2024-03-29T06:51:42;4.43;;;1.90;;
39540;SDS011;25219;52.244;21.006;2024-03-29T06:54:08;3.70;;;1.80;;
39540;SDS011;25219;52.244;21.006;2024-03-29T06:56:33;5.20;;;2.40;;
39540;SDS011;25219;52.244;21.006;2024-03-29T06:58:58;3.30;;;1.73;;
39540;SDS011;25219;52.244;21.006;2024-03-29T07:01:24;6.38;;;1.92;;
39540;SDS011;25219;52.244;21.006;2024-03-29T07:03:49;3.60;;;1.70;;
39540;SDS011;25219;52.244;21.006;2024-03-29T07:06:14;4.87;;;1.60;;
39540;SDS011;25219;52.244;21.006;2024-03-29T07:08:39;4.47;;;1.70;;
39540;SDS011;25219;52.244;21.006;2024-03-29T07:11:05;5.85;;;1.80;;
39540;SDS011;25219;52.244;21.006;2024-03-29T07:13:30;6.25;;;2.03;;
39540;SDS011;25219;52.244;21.006;2024-03-29T07:15:59;5.88;;;1.88;;
39540;SDS011;25219;52.244;21.006;2024-03-29T07:18:24;4.20;;;1.65;;
39540;SDS011;25219;52.244;21.006;2024-03-29T07:20:50;4.28;;;1.92;;
39540;SDS011;25219;52.244;21.006;2024-03-29T07:23:15;5.07;;;1.67;;
39540;SDS011;25219;52.244;21.006;2024-03-29T07:25:41;2.70;;;1.73;;
39540;SDS011;25219;52.244;21.006;2024-03-29T07:28:07;4.68;;;1.60;;
39540;SDS011;25219;52.244;21.006;2024-03-29T07:30:32;3.65;;;2.10;;
39540;SDS011;25219;52.244;21.006;2024-03-29T07:32:57;2.03;;;1.53;;
39540;SDS011;25219;52.244;21.006;2024-03-29T07:35:22;4.57;;;1.43;;
39540;SDS011;25219;52.244;21.006;2024-03-29T07:37:47;5.20;;;2.23;;
39540;SDS011;25219;52.244;21.006;2024-03-29T07:40:15;3.70;;;1.90;;
39540;SDS011;25219;52.244;21.006;2024-03-29T07:42:40;2.65;;;1.30;;
39540;SDS011;25219;52.244;21.006;2024-03-29T07:45:05;6.27;;;1.43;;
39540;SDS011;25219;52.244;21.006;2024-03-29T07:47:31;3.15;;;1.20;;
39540;SDS011;25219;52.244;21.006;2024-03-29T07:49:57;6.50;;;1.83;;
39540;SDS011;25219;52.244;21.006;2024-03-29T07:52:22;3.73;;;1.50;;
39540;SDS011;25219;52.244;21.006;2024-03-29T07:54:47;3.53;;;1.30;;
39540;SDS011;25219;52.244;21.006;2024-03-29T07:57:13;4.25;;;1.52;;
39540;SDS011;25219;52.244;21.006;2024-03-29T07:59:40;6.68;;;2.05;;
39540;SDS011;25219;52.244;21.006;2024-03-29T08:02:05;5.18;;;1.80;;
39540;SDS011;25219;52.244;21.006;2024-03-29T08:04:30;3.00;;;1.75;;
39540;SDS011;25219;52.244;21.006;2024-03-29T08:06:55;2.97;;;1.40;;
39540;SDS011;25219;52.244;21.006;2024-03-29T08:09:21;1.80;;;1.10;;
39540;SDS011;25219;52.244;21.006;2024-03-29T08:11:46;1.87;;;1.30;;
39540;SDS011;25219;52.244;21.006;2024-03-29T08:14:11;2.92;;;1.02;;
39540;SDS011;25219;52.244;21.006;2024-03-29T08:16:36;2.37;;;1.20;;
39540;SDS011;25219;52.244;21.006;2024-03-29T08:19:02;1.93;;;0.87;;
39540;SDS011;25219;52.244;21.006;2024-03-29T08:21:27;3.35;;;0.80;;
39540;SDS011;25219;52.244;21.006;2024-03-29T08:23:52;1.87;;;1.00;;
39540;SDS011;25219;52.244;21.006;2024-03-29T08:26:20;2.00;;;0.88;;
39540;SDS011;25219;52.244;21.006;2024-03-29T08:28:45;2.78;;;0.60;;
39540;SDS011;25219;52.244;21.006;2024-03-29T08:31:11;1.85;;;0.80;;
39540;SDS011;25219;52.244;21.006;2024-03-29T08:33:36;1.67;;;1.00;;
39540;SDS011;25219;52.244;21.006;2024-03-29T08:36:05;4.20;;;1.10;;
39540;SDS011;25219;52.244;21.006;2024-03-29T08:38:31;1.98;;;0.75;;
39540;SDS011;25219;52.244;21.006;2024-03-29T08:40:56;2.15;;;1.10;;
39540;SDS011;25219;52.244;21.006;2024-03-29T08:43:21;3.17;;;1.17;;
39540;SDS011;25219;52.244;21.006;2024-03-29T08:45:46;3.42;;;1.05;;
39540;SDS011;25219;52.244;21.006;2024-03-29T08:48:12;1.63;;;0.83;;
39540;SDS011;25219;52.244;21.006;2024-03-29T08:50:37;3.35;;;1.13;;
39540;SDS011;25219;52.244;21.006;2024-03-29T08:53:03;4.10;;;0.98;;
39540;SDS011;25219;52.244;21.006;2024-03-29T08:55:31;2.88;;;0.95;;
39540;SDS011;25219;52.244;21.006;2024-03-29T08:58:00;2.42;;;0.90;;
39540;SDS011;25219;52.244;21.006;2024-03-29T09:00:25;2.60;;;0.88;;
39540;SDS011;25219;52.244;21.006;2024-03-29T09:02:50;3.85;;;1.20;;
39540;SDS011;25219;52.244;21.006;2024-03-29T09:05:16;2.43;;;1.03;;
39540;SDS011;25219;52.244;21.006;2024-03-29T09:07:41;1.90;;;0.85;;
39540;SDS011;25219;52.244;21.006;2024-03-29T09:10:07;2.97;;;0.90;;
39540;SDS011;25219;52.244;21.006;2024-03-29T09:12:32;3.78;;;0.90;;
39540;SDS011;25219;52.244;21.006;2024-03-29T09:14:57;3.00;;;1.00;;
39540;SDS011;25219;52.244;21.006;2024-03-29T09:17:22;3.10;;;0.80;;
39540;SDS011;25219;52.244;21.006;2024-03-29T09:19:50;3.83;;;1.10;;
39540;SDS011;25219;52.244;21.006;2024-03-29T09:22:16;2.88;;;1.05;;
39540;SDS011;25219;52.244;21.006;2024-03-29T09:24:42;2.60;;;1.20;;
39540;SDS011;25219;52.244;21.006;2024-03-29T09:27:07;3.72;;;0.90;;
39540;SDS011;25219;52.244;21.006;2024-03-29T09:29:32;3.23;;;1.10;;
39540;SDS011;25219;52.244;21.006;2024-03-29T09:31:59;2.63;;;1.17;;
39540;SDS011;25219;52.244;21.006;2024-03-29T09:34:25;3.80;;;1.10;;
39540;SDS011;25219;52.244;21.006;2024-03-29T09:36:50;3.67;;;1.00;;
39540;SDS011;25219;52.244;21.006;2024-03-29T09:39:15;5.63;;;1.43;;
39540;SDS011;25219;52.244;21.006;2024-03-29T09:41:40;2.37;;;0.97;;
39540;SDS011;25219;52.244;21.006;2024-03-29T09:44:09;2.25;;;0.90;;
39540;SDS011;25219;52.244;21.006;2024-03-29T09:46:36;2.33;;;1.08;;
39540;SDS011;25219;52.244;21.006;2024-03-29T09:49:04;2.55;;;1.25;;
39540;SDS011;25219;52.244;21.006;2024-03-29T09:51:31;1.52;;;0.98;;
39540;SDS011;25219;52.244;21.006;2024-03-29T09:53:57;3.97;;;1.08;;
39540;SDS011;25219;52.244;21.006;2024-03-29T09:56:23;3.47;;;1.05;;
39540;SDS011;25219;52.244;21.006;2024-03-29T09:58:50;2.83;;;1.13;;
39540;SDS011;25219;52.244;21.006;2024-03-29T10:01:15;1.80;;;1.27;;
39540;SDS011;25219;52.244;21.006;2024-03-29T10:03:40;3.37;;;1.10;;
39540;SDS011;25219;52.244;21.006;2024-03-29T10:06:06;3.88;;;1.20;;
39540;SDS011;25219;52.244;21.006;2024-03-29T10:08:35;4.10;;;1.20;;
39540;SDS011;25219;52.244;21.006;2024-03-29T10:11:00;2.27;;;1.17;;
39540;SDS011;25219;52.244;21.006;2024-03-29T10:13:25;3.67;;;1.13;;
39540;SDS011;25219;52.244;21.006;2024-03-29T10:15:51;2.85;;;1.20;;
39540;SDS011;25219;52.244;21.006;2024-03-29T10:18:18;3.33;;;1.92;;
39540;SDS011;25219;52.244;21.006;2024-03-29T10:20:45;5.10;;;1.40;;
39540;SDS011;25219;52.244;21.006;2024-03-29T10:23:10;3.88;;;1.10;;
39540;SDS011;25219;52.244;21.006;2024-03-29T10:25:35;1.67;;;0.87;;
39540;SDS011;25219;52.244;21.006;2024-03-29T10:28:00;3.03;;;0.90;;
39540;SDS011;25219;52.244;21.006;2024-03-29T10:30:29;4.78;;;1.13;;
39540;SDS011;25219;52.244;21.006;2024-03-29T10:32:57;2.50;;;1.40;;
39540;SDS011;25219;52.244;21.006;2024-03-29T10:35:22;5.70;;;1.33;;
39540;SDS011;25219;52.244;21.006;2024-03-29T10:37:47;2.67;;;0.85;;
39540;SDS011;25219;52.244;21.006;2024-03-29T10:40:12;3.22;;;0.85;;
39540;SDS011;25219;52.244;21.006;2024-03-29T10:42:42;2.67;;;0.82;;
39540;SDS011;25219;52.244;21.006;2024-03-29T10:45:09;2.40;;;1.05;;
39540;SDS011;25219;52.244;21.006;2024-03-29T10:47:34;5.80;;;0.90;;
39540;SDS011;25219;52.244;21.006;2024-03-29T10:50:00;2.55;;;0.85;;
39540;SDS011;25219;52.244;21.006;2024-03-29T10:52:25;8.88;;;1.50;;
39540;SDS011;25219;52.244;21.006;2024-03-29T10:54:54;5.28;;;1.30;;
39540;SDS011;25219;52.244;21.006;2024-03-29T10:57:23;5.53;;;0.73;;
39540;SDS011;25219;52.244;21.006;2024-03-29T10:59:52;5.22;;;1.35;;
39540;SDS011;25219;52.244;21.006;2024-03-29T11:05:09;4.13;;;0.80;;
39540;SDS011;25219;52.244;21.006;2024-03-29T11:07:35;1.83;;;0.90;;
39540;SDS011;25219;52.244;21.006;2024-03-29T11:10:03;1.02;;;0.82;;
39540;SDS011;25219;52.244;21.006;2024-03-29T11:12:30;2.75;;;0.90;;
39540;SDS011;25219;52.244;21.006;2024-03-29T11:15:02;2.85;;;0.90;;
39540;SDS011;25219;52.244;21.006;2024-03-29T11:17:29;3.78;;;0.93;;
39540;SDS011;25219;52.244;21.006;2024-03-29T11:20:01;0.90;;;0.70;;
39540;SDS011;25219;52.244;21.006;2024-03-29T11:22:27;3.17;;;0.60;;
39540;SDS011;25219;52.244;21.006;2024-03-29T11:24:53;2.97;;;0.90;;
39540;SDS011;25219;52.244;21.006;2024-03-29T11:27:22;2.78;;;0.82;;
39540;SDS011;25219;52.244;21.006;2024-03-29T11:29:47;3.78;;;0.88;;
39540;SDS011;25219;52.244;21.006;2024-03-29T11:32:14;4.68;;;1.08;;
39540;SDS011;25219;52.244;21.006;2024-03-29T11:34:45;4.97;;;0.80;;
39540;SDS011;25219;52.244;21.006;2024-03-29T11:37:14;1.00;;;0.57;;
39540;SDS011;25219;52.244;21.006;2024-03-29T11:39:40;1.80;;;0.60;;
39540;SDS011;25219;52.244;21.006;2024-03-29T11:44:36;1.87;;;0.60;;
39540;SDS011;25219;52.244;21.006;2024-03-29T11:47:01;4.20;;;0.67;;
39540;SDS011;25219;52.244;21.006;2024-03-29T11:49:31;1.52;;;0.73;;
39540;SDS011;25219;52.244;21.006;2024-03-29T11:52:06;2.03;;;0.70;;
39540;SDS011;25219;52.244;21.006;2024-03-29T11:54:38;1.88;;;0.73;;
39540;SDS011;25219;52.244;21.006;2024-03-29T11:57:03;1.77;;;0.60;;
39540;SDS011;25219;52.244;21.006;2024-03-29T11:59:29;2.57;;;0.87;;
39540;SDS011;25219;52.244;21.006;2024-03-29T12:01:54;1.85;;;0.82;;
39540;SDS011;25219;52.244;21.006;2024-03-29T12:04:23;1.75;;;0.70;;
39540;SDS011;25219;52.244;21.006;2024-03-29T12:06:49;0.98;;;0.52;;
39540;SDS011;25219;52.244;21.006;2024-03-29T12:09:14;0.73;;;0.60;;
39540;SDS011;25219;52.244;21.006;2024-03-29T12:11:39;2.93;;;0.83;;
39540;SDS011;25219;52.244;21.006;2024-03-29T12:14:11;5.82;;;0.80;;
39540;SDS011;25219;52.244;21.006;2024-03-29T12:16:45;2.13;;;0.90;;
39540;SDS011;25219;52.244;21.006;2024-03-29T12:19:21;3.33;;;1.13;;
39540;SDS011;25219;52.244;21.006;2024-03-29T12:21:46;2.88;;;0.70;;
39540;SDS011;25219;52.244;21.006;2024-03-29T12:24:11;3.93;;;0.73;;
39540;SDS011;25219;52.244;21.006;2024-03-29T12:26:37;4.77;;;1.53;;
39540;SDS011;25219;52.244;21.006;2024-03-29T12:29:02;3.53;;;0.97;;
39540;SDS011;25219;52.244;21.006;2024-03-29T12:31:27;5.00;;;1.20;;
39540;SDS011;25219;52.244;21.006;2024-03-29T12:33:52;3.13;;;0.90;;
39540;SDS011;25219;52.244;21.006;2024-03-29T12:36:18;1.42;;;0.70;;
39540;SDS011;25219;52.244;21.006;2024-03-29T12:38:45;1.65;;;1.13;;
39540;SDS011;25219;52.244;21.006;2024-03-29T12:41:13;2.47;;;1.10;;
39540;SDS011;25219;52.244;21.006;2024-03-29T12:43:38;4.25;;;0.90;;
39540;SDS011;25219;52.244;21.006;2024-03-29T12:46:03;4.57;;;0.70;;
39540;SDS011;25219;52.244;21.006;2024-03-29T12:48:29;2.75;;;0.90;;
39540;SDS011;25219;52.244;21.006;2024-03-29T12:50:54;1.83;;;0.60;;
39540;SDS011;25219;52.244;21.006;2024-03-29T12:53:20;6.22;;;0.93;;
39540;SDS011;25219;52.244;21.006;2024-03-29T12:55:46;2.75;;;0.77;;
39540;SDS011;25219;52.244;21.006;2024-03-29T12:58:13;1.83;;;0.70;;
39540;SDS011;25219;52.244;21.006;2024-03-29T13:00:38;2.42;;;1.02;;
39540;SDS011;25219;52.244;21.006;2024-03-29T13:03:04;2.08;;;0.70;;
39540;SDS011;25219;52.244;21.006;2024-03-29T13:05:30;1.55;;;0.50;;
39540;SDS011;25219;52.244;21.006;2024-03-29T13:08:00;2.92;;;0.85;;
39540;SDS011;25219;52.244;21.006;2024-03-29T13:10:25;2.58;;;0.60;;
39540;SDS011;25219;52.244;21.006;2024-03-29T13:12:50;2.75;;;1.00;;
39540;SDS011;25219;52.244;21.006;2024-03-29T13:15:17;1.98;;;0.70;;
39540;SDS011;25219;52.244;21.006;2024-03-29T13:17:42;1.30;;;0.70;;
39540;SDS011;25219;52.244;21.006;2024-03-29T13:20:07;4.27;;;0.80;;
39540;SDS011;25219;52.244;21.006;2024-03-29T13:22:35;1.40;;;1.00;;
39540;SDS011;25219;52.244;21.006;2024-03-29T13:25:00;3.13;;;1.00;;
39540;SDS011;25219;52.244;21.006;2024-03-29T13:27:25;2.93;;;0.70;;
39540;SDS011;25219;52.244;21.006;2024-03-29T13:29:51;3.30;;;0.80;;
39540;SDS011;25219;52.244;21.006;2024-03-29T13:32:17;3.35;;;0.77;;
39540;SDS011;25219;52.244;21.006;2024-03-29T13:34:43;3.17;;;0.85;;
39540;SDS011;25219;52.244;21.006;2024-03-29T13:37:08;2.23;;;0.80;;
39540;SDS011;25219;52.244;21.006;2024-03-29T13:39:33;1.17;;;0.70;;
39540;SDS011;25219;52.244;21.006;2024-03-29T13:41:58;1.13;;;0.80;;
39540;SDS011;25219;52.244;21.006;2024-03-29T13:44:24;2.63;;;0.57;;
39540;SDS011;25219;52.244;21.006;2024-03-29T13:46:49;2.83;;;0.60;;
39540;SDS011;25219;52.244;21.006;2024-03-29T13:49:14;5.63;;;0.60;;
39540;SDS011;25219;52.244;21.006;2024-03-29T13:51:39;2.53;;;0.77;;
39540;SDS011;25219;52.244;21.006;2024-03-29T13:54:05;2.17;;;0.67;;
39540;SDS011;25219;52.244;21.006;2024-03-29T13:56:30;1.20;;;0.47;;
39540;SDS011;25219;52.244;21.006;2024-03-29T13:58:55;2.13;;;0.68;;
39540;SDS011;25219;52.244;21.006;2024-03-29T14:01:21;3.03;;;0.90;;
39540;SDS011;25219;52.244;21.006;2024-03-29T14:03:46;1.73;;;0.80;;
39540;SDS011;25219;52.244;21.006;2024-03-29T14:06:11;0.80;;;0.57;;
39540;SDS011;25219;52.244;21.006;2024-03-29T14:08:37;5.70;;;0.57;;
39540;SDS011;25219;52.244;21.006;2024-03-29T14:11:02;1.10;;;0.50;;
39540;SDS011;25219;52.244;21.006;2024-03-29T14:13:27;3.65;;;0.80;;
39540;SDS011;25219;52.244;21.006;2024-03-29T14:15:53;2.25;;;0.70;;
39540;SDS011;25219;52.244;21.006;2024-03-29T14:18:19;1.38;;;0.68;;
39540;SDS011;25219;52.244;21.006;2024-03-29T14:20:44;2.10;;;0.47;;
39540;SDS011;25219;52.244;21.006;2024-03-29T14:23:09;2.00;;;0.63;;
39540;SDS011;25219;52.244;21.006;2024-03-29T14:25:37;5.30;;;0.63;;
39540;SDS011;25219;52.244;21.006;2024-03-29T14:28:03;1.58;;;0.50;;
39540;SDS011;25219;52.244;21.006;2024-03-29T14:30:29;1.83;;;0.80;;